Terminal Aerodrome Forecast
Issued by NWS Topeka, KS

Home | Current Version | Previous Version | Graphics & Text | Print | Product List | Glossary On
Versions: 1 2 3 4 5 6 7 8 9 10 11 12 13 14 15 16 17 18 19 20 21
000
FTUS43 KTOP 061720
TAFTOP
TAF
KTOP 061720Z 0618/0718 20012G22KT P6SM SCT040 BKN080
     FM062000 22010KT P6SM VCTS BKN040CB
      TEMPO 0621/0623 4SM TSRA OVC025CB
     FM070000 33010G18KT 5SM -SHRA VCTS OVC015CB
     FM070500 01010G18KT 5SM -SHRA BR OVC015
     FM071300 01010KT 6SM BR SCT008 BKN015=

USA.gov is the U.S. government's official web portal to all federal, state and local government web resources and services.